Time;durP1;ratioP1;P1;durP2;ratioP2;P2;SDS_P1;SDS_P2;PMS_P1;PMS_P2;Temp;Humidity;BMP_temperature;BMP_pressure;BME280_temperature;BME280_humidity;BME280_pressure;Samples;Min_cycle;Max_cycle;Signal;HPM_P1;HPM_P2
2023/03/21 00:02:03;;;;;;;5.93;5.37;;;;;;;;;;6178300;23;20400;-77
2023/03/21 00:04:35;;;;;;;5.07;4.67;;;;;;;;;;6179577;23;20460;-77
2023/03/21 00:07:12;;;;;;;5.70;5.10;;;;;;;;;;6180342;23;20446;-77
2023/03/21 00:09:47;;;;;;;6.97;4.70;;;;;;;;;;6180018;23;20424;-76
2023/03/21 00:12:20;;;;;;;6.93;5.50;;;;;;;;;;6181952;23;20387;-77
2023/03/21 00:14:54;;;;;;;5.70;5.20;;;;;;;;;;6181843;23;20415;-78
2023/03/21 00:17:31;;;;;;;6.77;5.37;;;;;;;;;;6181858;23;20426;-78
2023/03/21 00:20:13;;;;;;;7.40;6.30;;;;;;;;;;6181701;23;20412;-77
2023/03/21 00:22:49;;;;;;;6.30;5.77;;;;;;;;;;6182785;23;20484;-76
2023/03/21 00:25:24;;;;;;;6.57;5.53;;;;;;;;;;6184212;23;20483;-76
2023/03/21 00:27:55;;;;;;;6.13;5.60;;;;;;;;;;6183803;23;20443;-76
2023/03/21 00:30:28;;;;;;;6.27;5.77;;;;;;;;;;6183554;23;20420;-77
2023/03/21 00:32:57;;;;;;;7.27;6.57;;;;;;;;;;6181042;23;20444;-77
2023/03/21 00:35:31;;;;;;;6.20;5.60;;;;;;;;;;6176578;23;20424;-77
2023/03/21 00:38:11;;;;;;;7.60;6.90;;;;;;;;;;6162247;23;20412;-78
2023/03/21 00:40:52;;;;;;;6.37;5.77;;;;;;;;;;6164777;23;20416;-78
2023/03/21 00:43:32;;;;;;;9.40;5.00;;;;;;;;;;6165654;23;20459;-77
2023/03/21 00:46:03;;;;;;;6.60;6.00;;;;;;;;;;6166179;23;20384;-78
2023/03/21 00:48:35;;;;;;;6.37;5.80;;;;;;;;;;6164085;23;20467;-77
2023/03/21 00:51:14;;;;;;;6.00;5.40;;;;;;;;;;6167437;23;20428;-77
2023/03/21 00:53:45;;;;;;;6.67;6.07;;;;;;;;;;6164690;23;20416;-77
2023/03/21 00:56:14;;;;;;;7.20;6.50;;;;;;;;;;6161603;23;20419;-75
2023/03/21 00:58:50;;;;;;;8.33;5.73;;;;;;;;;;6159192;23;20426;-78
2023/03/21 01:01:34;;;;;;;6.73;6.03;;;;;;;;;;6158274;23;20399;-76
2023/03/21 01:07:06;;;;;;;6.80;6.20;;;;;;;;;;6158168;23;20395;-76
2023/03/21 01:12:36;;;;;;;7.00;6.37;;;;;;;;;;6167096;23;20988;-76
2023/03/21 01:15:18;;;;;;;6.60;6.00;;;;;;;;;;6170058;23;20455;-77
2023/03/21 01:17:57;;;;;;;7.23;6.43;;;;;;;;;;6170973;23;20400;-77
2023/03/21 01:20:41;;;;;;;6.90;6.27;;;;;;;;;;6172239;23;20407;-75
2023/03/21 01:23:26;;;;;;;8.10;6.50;;;;;;;;;;6170843;23;20418;-77
2023/03/21 01:26:02;;;;;;;6.67;6.07;;;;;;;;;;6169745;23;20435;-77
2023/03/21 01:28:47;;;;;;;7.40;6.80;;;;;;;;;;6172632;23;20443;-76
2023/03/21 01:31:39;;;;;;;7.03;6.43;;;;;;;;;;6172461;23;20412;-76
2023/03/21 01:34:22;;;;;;;7.83;6.77;;;;;;;;;;6139789;23;20428;-78
2023/03/21 01:40:11;;;;;;;8.00;6.60;;;;;;;;;;6125578;23;20413;-77
2023/03/21 01:43:03;;;;;;;8.60;7.30;;;;;;;;;;6130123;23;20995;-76
2023/03/21 01:46:05;;;;;;;8.27;7.30;;;;;;;;;;6130364;23;20515;-76
2023/03/21 01:49:03;;;;;;;7.00;6.13;;;;;;;;;;6126708;23;20468;-77
2023/03/21 01:51:51;;;;;;;8.47;6.53;;;;;;;;;;6127168;23;20452;-77
2023/03/21 01:54:32;;;;;;;8.73;6.77;;;;;;;;;;6127214;23;20480;-77
2023/03/21 01:57:10;;;;;;;8.13;7.07;;;;;;;;;;6128826;23;20903;-77
2023/03/21 02:00:11;;;;;;;7.73;7.03;;;;;;;;;;6131805;23;20952;-76
2023/03/21 02:02:54;;;;;;;7.47;6.87;;;;;;;;;;6128803;23;20413;-76
2023/03/21 02:16:57;;;;;;;6.97;6.37;;;;;;;;;;6113864;23;20435;-77
2023/03/21 02:19:43;;;;;;;8.07;7.27;;;;;;;;;;6121649;23;20428;-77
2023/03/21 02:22:32;;;;;;;7.53;6.83;;;;;;;;;;6185045;23;20411;-76
2023/03/21 02:25:34;;;;;;;8.73;7.93;;;;;;;;;;6187439;23;20458;-76
2023/03/21 02:28:15;;;;;;;7.70;7.00;;;;;;;;;;6188195;23;20496;-75
2023/03/21 02:31:08;;;;;;;7.30;6.60;;;;;;;;;;6187357;23;20419;-77
2023/03/21 02:34:01;;;;;;;7.83;7.20;;;;;;;;;;6188190;23;20422;-77
2023/03/21 02:36:42;;;;;;;7.83;7.20;;;;;;;;;;6188194;23;20497;-77
2023/03/21 02:39:29;;;;;;;8.60;6.73;;;;;;;;;;6196132;23;20865;-78
2023/03/21 02:42:02;;;;;;;7.43;6.83;;;;;;;;;;6196710;23;20474;-76
2023/03/21 02:44:49;;;;;;;7.50;6.90;;;;;;;;;;6194139;23;20534;-77
2023/03/21 02:47:31;;;;;;;8.43;7.53;;;;;;;;;;6197315;23;20478;-77
2023/03/21 02:53:02;;;;;;;7.97;7.17;;;;;;;;;;6190511;23;20399;-77
2023/03/21 02:55:41;;;;;;;8.57;7.37;;;;;;;;;;6187851;23;20431;-77
2023/03/21 03:01:07;;;;;;;7.50;6.90;;;;;;;;;;6187941;23;20504;-77
2023/03/21 03:03:51;;;;;;;7.80;7.10;;;;;;;;;;6190994;23;20429;-77
2023/03/21 03:06:36;;;;;;;7.50;6.80;;;;;;;;;;6191939;23;20414;-78
2023/03/21 03:09:26;;;;;;;7.83;7.03;;;;;;;;;;6194296;23;20525;-77
2023/03/21 03:20:53;;;;;;;8.37;7.77;;;;;;;;;;6191111;23;20410;-76
2023/03/21 03:29:40;;;;;;;7.60;6.90;;;;;;;;;;6154899;23;20441;-76
2023/03/21 03:32:24;;;;;;;7.17;6.53;;;;;;;;;;6199081;23;20931;-76
2023/03/21 03:40:54;;;;;;;7.03;6.43;;;;;;;;;;6204914;23;20453;-76
2023/03/21 03:43:34;;;;;;;7.07;6.57;;;;;;;;;;6199677;23;20757;-78
2023/03/21 03:46:26;;;;;;;7.47;6.37;;;;;;;;;;6191824;23;20762;-77
2023/03/21 03:49:03;;;;;;;6.90;6.33;;;;;;;;;;6187137;23;20439;-77
2023/03/21 03:51:46;;;;;;;7.83;5.90;;;;;;;;;;6189041;23;20449;-77
2023/03/21 03:54:33;;;;;;;7.27;6.60;;;;;;;;;;6187259;23;20441;-77
2023/03/21 03:57:16;;;;;;;6.60;5.90;;;;;;;;;;6188213;23;20406;-77
2023/03/21 03:59:50;;;;;;;6.60;6.00;;;;;;;;;;6196110;23;20408;-77
2023/03/21 04:02:35;;;;;;;6.53;6.00;;;;;;;;;;6207083;23;20410;-77
2023/03/21 04:05:25;;;;;;;7.07;6.33;;;;;;;;;;6212270;23;20427;-78
2023/03/21 04:08:12;;;;;;;6.90;6.40;;;;;;;;;;6212826;23;20486;-76
2023/03/21 04:14:12;;;;;;;6.67;6.07;;;;;;;;;;6186319;23;20514;-76
2023/03/21 04:19:36;;;;;;;10.87;6.40;;;;;;;;;;6196209;23;20422;-76
2023/03/21 04:22:42;;;;;;;7.10;6.40;;;;;;;;;;6194842;23;20723;-77
2023/03/21 04:28:32;;;;;;;6.30;5.70;;;;;;;;;;6182075;23;20446;-77
2023/03/21 04:31:11;;;;;;;6.37;5.87;;;;;;;;;;6191569;23;20406;-75
2023/03/21 04:33:56;;;;;;;6.53;6.00;;;;;;;;;;6187861;23;20506;-77
2023/03/21 04:36:41;;;;;;;6.40;5.80;;;;;;;;;;6184772;23;20611;-77
2023/03/21 04:42:24;;;;;;;6.57;6.07;;;;;;;;;;6184175;23;20404;-77
2023/03/21 04:48:09;;;;;;;6.40;5.80;;;;;;;;;;6181764;23;20422;-77
2023/03/21 04:50:56;;;;;;;6.53;5.70;;;;;;;;;;6184592;23;20438;-79
2023/03/21 05:04:01;;;;;;;7.20;6.50;;;;;;;;;;6154156;23;20446;-77
2023/03/21 05:06:37;;;;;;;7.40;6.70;;;;;;;;;;6156633;23;21310;-78
2023/03/21 05:09:19;;;;;;;6.20;5.57;;;;;;;;;;6158783;23;20440;-78
2023/03/21 05:11:53;;;;;;;11.67;10.47;;;;;;;;;;6157937;23;21079;-77
2023/03/21 05:14:29;;;;;;;8.83;7.80;;;;;;;;;;6157714;23;20435;-76
2023/03/21 05:17:27;;;;;;;7.23;6.63;;;;;;;;;;6155231;23;20778;-77
2023/03/21 05:20:08;;;;;;;7.33;6.63;;;;;;;;;;6132380;23;20475;-76
2023/03/21 05:25:36;;;;;;;6.80;6.23;;;;;;;;;;6138660;23;20498;-77
2023/03/21 05:28:17;;;;;;;6.73;6.03;;;;;;;;;;6157521;23;20453;-76
2023/03/21 05:30:52;;;;;;;10.73;9.63;;;;;;;;;;6157691;23;20420;-77
2023/03/21 05:33:34;;;;;;;11.10;9.07;;;;;;;;;;6156947;23;20431;-77
2023/03/21 05:36:08;;;;;;;9.00;8.20;;;;;;;;;;6157646;23;20411;-78
2023/03/21 05:38:48;;;;;;;8.70;6.70;;;;;;;;;;6160951;23;20412;-77
2023/03/21 05:41:25;;;;;;;5.70;5.20;;;;;;;;;;6158660;23;20503;-76
2023/03/21 05:44:02;;;;;;;5.77;5.37;;;;;;;;;;6157744;23;20431;-76
2023/03/21 05:46:36;;;;;;;8.13;7.43;;;;;;;;;;6157410;23;20416;-76
2023/03/21 05:49:16;;;;;;;7.50;6.00;;;;;;;;;;6156718;23;20436;-76
2023/03/21 05:52:01;;;;;;;6.10;5.60;;;;;;;;;;6156738;23;20420;-77
2023/03/21 05:54:38;;;;;;;9.23;5.70;;;;;;;;;;6155335;23;20458;-79
2023/03/21 05:57:21;;;;;;;5.90;5.40;;;;;;;;;;6156615;23;20455;-77
2023/03/21 06:00:10;;;;;;;;;;;;;;;;;;;;;
2023/03/21 06:02:39;;;;;;;8.83;7.97;;;;;;;;;;6165851;23;20375;-76
2023/03/21 06:05:14;;;;;;;6.80;6.20;;;;;;;;;;6170656;23;20439;-77
2023/03/21 06:07:43;;;;;;;6.47;5.93;;;;;;;;;;6170547;23;20369;-77
2023/03/21 06:10:10;;;;;;;7.17;5.63;;;;;;;;;;6169755;23;20446;-77
2023/03/21 06:12:45;;;;;;;5.60;5.20;;;;;;;;;;6172093;23;20392;-77
2023/03/21 06:15:23;;;;;;;6.70;6.00;;;;;;;;;;6170106;23;20447;-77
2023/03/21 06:17:56;;;;;;;6.03;5.43;;;;;;;;;;6170882;23;20411;-77
2023/03/21 06:20:24;;;;;;;6.93;5.67;;;;;;;;;;6169557;23;20477;-78
2023/03/21 06:22:53;;;;;;;5.90;5.30;;;;;;;;;;6170651;23;20416;-76
2023/03/21 06:25:47;;;;;;;6.40;5.20;;;;;;;;;;6168491;23;20420;-77
2023/03/21 06:28:19;;;;;;;7.50;4.80;;;;;;;;;;6161150;23;20412;-77
2023/03/21 06:31:00;;;;;;;6.67;4.80;;;;;;;;;;6159787;23;20458;-77
2023/03/21 06:33:38;;;;;;;8.53;5.37;;;;;;;;;;6159312;23;20503;-77
2023/03/21 06:36:19;;;;;;;6.33;5.03;;;;;;;;;;6160103;23;20419;-78
2023/03/21 06:38:58;;;;;;;5.70;4.90;;;;;;;;;;6160361;23;20408;-76
2023/03/21 06:41:40;;;;;;;6.20;5.60;;;;;;;;;;6159966;23;20435;-78
2023/03/21 06:44:38;;;;;;;;;;;;;;;;;;;;;
2023/03/21 06:47:16;;;;;;;27.37;22.93;;;;;;;;;;6163838;23;20396;-77
2023/03/21 06:49:44;;;;;;;308.40;217.83;;;;;;;;;;6170281;23;20439;-77
2023/03/21 06:55:01;;;;;;;6.53;5.27;;;;;;;;;;6166218;23;20462;-77
2023/03/21 07:00:26;;;;;;;6.80;4.50;;;;;;;;;;6164463;23;20400;-76
2023/03/21 07:03:00;;;;;;;6.47;4.70;;;;;;;;;;6168534;23;20415;-76
2023/03/21 07:05:33;;;;;;;5.30;4.90;;;;;;;;;;6168760;23;20467;-78
2023/03/21 07:14:31;;;;;;;5.50;5.00;;;;;;;;;;6099565;23;20494;-77
2023/03/21 07:17:25;;;;;;;5.90;5.40;;;;;;;;;;6158719;23;20443;-77
2023/03/21 07:20:25;;;;;;;4.97;4.57;;;;;;;;;;6159511;23;20427;-78
2023/03/21 07:32:16;;;;;;;5.77;5.10;;;;;;;;;;6054635;23;20412;-77
2023/03/21 07:34:55;;;;;;;7.43;5.10;;;;;;;;;;6161411;23;20432;-80
2023/03/21 07:40:12;;;;;;;8.03;6.10;;;;;;;;;;6161162;23;20504;-76
2023/03/21 07:42:49;;;;;;;7.43;5.67;;;;;;;;;;6159658;23;20928;-79
2023/03/21 07:51:27;;;;;;;12.13;6.07;;;;;;;;;;6161609;23;20538;-77
2023/03/21 08:09:49;;;;;;;6.43;5.83;;;;;;;;;;6074117;23;20883;-78
2023/03/21 08:12:27;;;;;;;6.57;6.07;;;;;;;;;;6150030;23;20408;-78
2023/03/21 08:15:11;;;;;;;9.30;7.20;;;;;;;;;;6159606;23;20432;-77
2023/03/21 08:17:50;;;;;;;7.43;6.67;;;;;;;;;;6161243;23;20904;-77
2023/03/21 08:20:41;;;;;;;6.50;6.00;;;;;;;;;;6160554;23;20439;-78
2023/03/21 08:23:25;;;;;;;10.40;6.90;;;;;;;;;;6159301;23;20496;-77
2023/03/21 08:26:05;;;;;;;10.37;6.50;;;;;;;;;;6160199;23;20436;-77
2023/03/21 08:28:49;;;;;;;6.80;6.20;;;;;;;;;;6163068;23;20416;-77
2023/03/21 08:31:23;;;;;;;6.73;6.03;;;;;;;;;;6159882;23;20479;-79
2023/03/21 08:34:16;;;;;;;6.87;6.27;;;;;;;;;;6157169;23;21020;-77
2023/03/21 08:36:54;;;;;;;9.37;6.90;;;;;;;;;;6157569;23;20412;-77
2023/03/21 08:39:33;;;;;;;6.03;5.47;;;;;;;;;;6157590;23;20408;-77
2023/03/21 08:42:05;;;;;;;5.50;5.07;;;;;;;;;;6157473;23;20412;-78
2023/03/21 08:44:45;;;;;;;8.47;6.00;;;;;;;;;;6157331;23;20819;-77
2023/03/21 08:47:28;;;;;;;8.03;4.90;;;;;;;;;;6158800;23;20444;-77
2023/03/21 08:52:51;;;;;;;5.70;4.77;;;;;;;;;;6155687;23;20487;-78
2023/03/21 08:58:36;;;;;;;7.63;4.40;;;;;;;;;;6080663;23;20380;-77
2023/03/21 09:04:44;;;;;;;5.10;4.70;;;;;;;;;;6130845;23;20424;-76
2023/03/21 09:07:18;;;;;;;4.63;4.33;;;;;;;;;;6087115;23;20412;-77
2023/03/21 09:16:31;;;;;;;;;;;;;;;;;;;;;
2023/03/21 09:38:01;;;;;;;2.00;1.90;;;;;;;;;;5899374;24;20972;-77
2023/03/21 09:40:42;;;;;;;2.47;2.10;;;;;;;;;;5901166;24;20467;-77
2023/03/21 09:43:31;;;;;;;3.10;2.00;;;;;;;;;;5902214;24;20453;-78
2023/03/21 10:11:26;;;;;;;3.13;2.20;;;;;;;;;;5979703;24;20453;-76
2023/03/21 10:13:58;;;;;;;1.90;1.77;;;;;;;;;;6108690;23;20444;-78
2023/03/21 10:16:51;;;;;;;1.40;1.30;;;;;;;;;;6124967;23;20416;-78
2023/03/21 10:20:20;;;;;;;;;;;;;;;;;;;;;
2023/03/21 10:34:48;;;;;;;1.20;1.20;;;;;;;;;;5984396;23;20421;-76
2023/03/21 10:37:18;;;;;;;1.63;1.53;;;;;;;;;;6063461;23;20422;-76
2023/03/21 10:40:01;;;;;;;2.20;1.57;;;;;;;;;;6091114;23;20504;-77
2023/03/21 10:42:36;;;;;;;1.80;1.47;;;;;;;;;;6125265;23;20420;-78
2023/03/21 10:45:32;;;;;;;3.87;2.17;;;;;;;;;;6125457;23;20436;-77
2023/03/21 10:48:11;;;;;;;4.93;1.90;;;;;;;;;;6125085;23;20894;-77
2023/03/21 10:50:40;;;;;;;2.43;2.20;;;;;;;;;;6125141;23;20766;-76
2023/03/21 10:53:15;;;;;;;2.50;2.30;;;;;;;;;;6125286;23;20408;-76
2023/03/21 10:55:45;;;;;;;2.73;2.50;;;;;;;;;;6126096;23;20523;-76
2023/03/21 10:58:17;;;;;;;2.30;2.10;;;;;;;;;;6125572;23;20424;-76
2023/03/21 11:00:56;;;;;;;2.30;2.17;;;;;;;;;;6126329;23;20413;-77
2023/03/21 11:03:32;;;;;;;3.43;2.13;;;;;;;;;;6126702;23;20424;-76
2023/03/21 11:08:53;;;;;;;3.00;2.70;;;;;;;;;;6126942;23;20413;-77
2023/03/21 11:11:26;;;;;;;3.00;2.80;;;;;;;;;;6139824;23;20522;-77
2023/03/21 11:14:05;;;;;;;4.57;2.60;;;;;;;;;;6156923;23;20436;-76
2023/03/21 11:16:37;;;;;;;2.50;2.30;;;;;;;;;;6156964;23;20807;-77
2023/03/21 11:19:14;;;;;;;3.23;3.00;;;;;;;;;;6156370;23;20459;-76
2023/03/21 11:21:45;;;;;;;2.13;2.00;;;;;;;;;;6156576;23;20407;-77
2023/03/21 11:24:18;;;;;;;4.43;2.77;;;;;;;;;;6155920;23;20455;-76
2023/03/21 11:26:55;;;;;;;2.40;2.23;;;;;;;;;;6156213;23;20415;-77
2023/03/21 11:29:34;;;;;;;3.20;2.90;;;;;;;;;;6156095;23;20415;-77
2023/03/21 11:32:15;;;;;;;2.80;2.13;;;;;;;;;;6155869;23;20487;-77
2023/03/21 11:34:46;;;;;;;2.93;2.73;;;;;;;;;;6156667;23;20443;-77
2023/03/21 11:37:19;;;;;;;2.97;2.67;;;;;;;;;;6156985;23;20992;-77
2023/03/21 11:39:49;;;;;;;2.90;2.70;;;;;;;;;;6156038;23;20881;-77
2023/03/21 11:42:27;;;;;;;4.60;3.50;;;;;;;;;;6158497;23;20913;-76
2023/03/21 11:45:01;;;;;;;3.37;2.33;;;;;;;;;;6158828;23;20933;-77
2023/03/21 11:47:37;;;;;;;2.67;2.37;;;;;;;;;;6159504;23;20917;-77
2023/03/21 11:50:22;;;;;;;2.57;2.37;;;;;;;;;;6162023;23;20443;-77
2023/03/21 11:53:06;;;;;;;2.93;2.60;;;;;;;;;;6165842;23;20412;-77
2023/03/21 11:55:51;;;;;;;2.77;2.50;;;;;;;;;;6168835;23;20508;-76
2023/03/21 11:58:37;;;;;;;3.03;2.77;;;;;;;;;;6166016;23;20412;-78
2023/03/21 12:01:27;;;;;;;3.23;2.50;;;;;;;;;;6165617;23;20400;-78
2023/03/21 12:04:17;;;;;;;2.90;2.70;;;;;;;;;;6163107;23;20431;-78
2023/03/21 12:09:54;;;;;;;3.17;2.70;;;;;;;;;;6157688;23;20412;-78
2023/03/21 12:12:42;;;;;;;3.40;3.20;;;;;;;;;;6160577;23;20419;-77
2023/03/21 12:15:24;;;;;;;4.77;2.93;;;;;;;;;;6160549;23;20439;-77
2023/03/21 12:18:03;;;;;;;4.23;3.43;;;;;;;;;;6160753;23;20422;-77
2023/03/21 12:20:49;;;;;;;4.30;3.90;;;;;;;;;;6162499;23;20408;-79
2023/03/21 12:23:54;;;;;;;4.20;3.20;;;;;;;;;;6161553;23;20416;-78
2023/03/21 12:29:36;;;;;;;4.30;3.40;;;;;;;;;;6157064;23;20479;-78
2023/03/21 12:32:21;;;;;;;5.50;4.03;;;;;;;;;;6158398;23;20503;-77
2023/03/21 12:35:15;;;;;;;3.97;3.10;;;;;;;;;;6160928;23;20511;-77
2023/03/21 12:37:48;;;;;;;3.67;3.37;;;;;;;;;;6161526;23;20451;-77
2023/03/21 12:40:33;;;;;;;3.63;3.27;;;;;;;;;;6159799;23;20439;-78
2023/03/21 12:43:07;;;;;;;9.33;3.50;;;;;;;;;;6158959;23;20418;-77
2023/03/21 12:45:42;;;;;;;4.07;3.57;;;;;;;;;;6159613;23;20436;-77
2023/03/21 12:48:22;;;;;;;3.10;2.90;;;;;;;;;;6159117;23;20422;-78
2023/03/21 12:50:52;;;;;;;3.47;3.20;;;;;;;;;;6162370;23;20812;-76
2023/03/21 12:53:27;;;;;;;4.60;3.07;;;;;;;;;;6160750;23;20430;-77
2023/03/21 12:56:01;;;;;;;3.53;3.20;;;;;;;;;;6158838;23;20436;-76
2023/03/21 12:58:32;;;;;;;5.70;3.13;;;;;;;;;;6159169;23;20412;-78
2023/03/21 13:01:05;;;;;;;3.13;2.87;;;;;;;;;;6160498;23;20483;-77
2023/03/21 13:03:37;;;;;;;3.20;3.00;;;;;;;;;;6162983;23;20416;-77
2023/03/21 13:06:06;;;;;;;3.73;3.00;;;;;;;;;;6170128;23;20412;-77
2023/03/21 13:08:38;;;;;;;3.30;3.00;;;;;;;;;;6169434;23;20799;-77
2023/03/21 13:11:08;;;;;;;3.40;3.20;;;;;;;;;;6168176;23;20439;-77
2023/03/21 13:13:38;;;;;;;3.40;3.10;;;;;;;;;;6168297;23;20407;-78
2023/03/21 13:16:10;;;;;;;5.73;3.80;;;;;;;;;;6168392;23;20676;-77
2023/03/21 13:18:46;;;;;;;3.50;3.30;;;;;;;;;;6171334;23;20404;-76
2023/03/21 13:21:23;;;;;;;3.50;3.27;;;;;;;;;;6171757;23;20897;-77
2023/03/21 13:24:02;;;;;;;3.40;3.10;;;;;;;;;;6171004;23;20434;-77
2023/03/21 13:26:48;;;;;;;3.47;2.77;;;;;;;;;;6160236;23;20407;-76
2023/03/21 13:29:31;;;;;;;3.33;3.13;;;;;;;;;;6155126;23;20503;-78
2023/03/21 13:32:11;;;;;;;2.77;2.57;;;;;;;;;;6154544;23;20511;-77
2023/03/21 13:34:44;;;;;;;5.83;3.30;;;;;;;;;;6154328;23;20458;-77
2023/03/21 13:37:22;;;;;;;4.57;2.60;;;;;;;;;;6154384;23;20454;-76
2023/03/21 13:40:08;;;;;;;4.53;2.60;;;;;;;;;;6154354;23;20411;-78
2023/03/21 13:42:36;;;;;;;3.10;2.80;;;;;;;;;;6154237;23;20416;-77
2023/03/21 13:45:12;;;;;;;3.83;3.23;;;;;;;;;;6154567;23;20432;-76
2023/03/21 13:47:41;;;;;;;3.37;3.13;;;;;;;;;;6153982;23;20435;-77
2023/03/21 13:50:32;;;;;;;2.90;2.60;;;;;;;;;;6156533;23;20436;-77
2023/03/21 13:53:21;;;;;;;4.13;2.70;;;;;;;;;;6156794;23;20388;-77
2023/03/21 13:56:00;;;;;;;3.43;3.13;;;;;;;;;;6154270;23;20502;-76
2023/03/21 13:58:41;;;;;;;3.90;3.57;;;;;;;;;;6153463;23;20557;-77
2023/03/21 14:01:24;;;;;;;6.73;3.40;;;;;;;;;;6153670;23;20439;-77
2023/03/21 14:04:06;;;;;;;7.27;6.57;;;;;;;;;;6153196;23;20459;-77
2023/03/21 14:06:51;;;;;;;2.70;2.33;;;;;;;;;;6153426;23;20930;-77
2023/03/21 14:09:37;;;;;;;2.60;2.40;;;;;;;;;;6154024;23;20411;-78
2023/03/21 14:12:12;;;;;;;3.30;2.40;;;;;;;;;;6153573;23;20528;-77
2023/03/21 14:14:47;;;;;;;2.13;2.03;;;;;;;;;;6153623;23;20431;-78
2023/03/21 14:17:24;;;;;;;4.70;2.40;;;;;;;;;;6154120;23;21178;-76
2023/03/21 14:22:53;;;;;;;3.10;2.57;;;;;;;;;;6153450;23;20517;-77
2023/03/21 14:25:25;;;;;;;3.87;2.70;;;;;;;;;;6156942;23;20439;-76
2023/03/21 14:28:02;;;;;;;3.10;2.90;;;;;;;;;;6157678;23;20412;-77
2023/03/21 14:30:48;;;;;;;5.73;2.40;;;;;;;;;;6156440;23;20897;-76
2023/03/21 14:33:25;;;;;;;3.43;3.13;;;;;;;;;;6156915;23;20412;-77
2023/03/21 14:36:11;;;;;;;3.43;3.13;;;;;;;;;;6156963;23;20438;-77
2023/03/21 14:38:43;;;;;;;3.67;3.30;;;;;;;;;;6156731;23;20423;-77
2023/03/21 14:41:29;;;;;;;3.00;2.77;;;;;;;;;;6157172;23;20476;-76
2023/03/21 14:44:21;;;;;;;4.00;3.37;;;;;;;;;;6156045;23;20446;-76
2023/03/21 14:46:57;;;;;;;3.80;3.43;;;;;;;;;;6148027;23;20821;-77
2023/03/21 14:49:32;;;;;;;3.40;3.10;;;;;;;;;;6155451;23;20435;-77
2023/03/21 14:52:05;;;;;;;4.10;3.53;;;;;;;;;;6155914;23;20667;-76
2023/03/21 14:54:52;;;;;;;4.27;3.87;;;;;;;;;;6153815;23;20435;-76
2023/03/21 14:57:29;;;;;;;3.37;3.03;;;;;;;;;;6154133;23;20423;-76
2023/03/21 15:00:11;;;;;;;4.47;3.10;;;;;;;;;;6154628;23;20419;-78
2023/03/21 15:02:46;;;;;;;3.63;3.03;;;;;;;;;;6153857;23;20450;-76
2023/03/21 15:05:24;;;;;;;3.33;3.03;;;;;;;;;;6155246;23;20454;-78
2023/03/21 15:08:10;;;;;;;4.30;3.30;;;;;;;;;;6157400;23;20392;-77
2023/03/21 15:10:46;;;;;;;3.83;3.40;;;;;;;;;;6159280;23;20757;-76
2023/03/21 15:13:20;;;;;;;3.40;3.10;;;;;;;;;;6160187;23;20487;-77
2023/03/21 15:15:59;;;;;;;4.03;3.53;;;;;;;;;;6162298;23;20459;-77
2023/03/21 15:18:34;;;;;;;6.27;3.30;;;;;;;;;;6160954;23;20531;-76
2023/03/21 15:21:10;;;;;;;6.07;3.10;;;;;;;;;;6160306;23;20419;-76
2023/03/21 15:23:55;;;;;;;4.47;3.30;;;;;;;;;;6162369;23;20419;-78
2023/03/21 15:26:45;;;;;;;6.10;3.07;;;;;;;;;;6165738;23;20431;-77
2023/03/21 15:29:25;;;;;;;3.00;2.73;;;;;;;;;;6162620;23;20404;-77
2023/03/21 15:32:01;;;;;;;5.00;2.73;;;;;;;;;;6165702;23;20436;-77
2023/03/21 15:34:41;;;;;;;4.03;2.70;;;;;;;;;;6165305;23;20438;-77
2023/03/21 15:37:27;;;;;;;3.43;3.07;;;;;;;;;;6164126;23;20415;-77
2023/03/21 15:40:13;;;;;;;4.57;2.97;;;;;;;;;;6159206;23;20973;-77
2023/03/21 15:42:49;;;;;;;3.43;2.67;;;;;;;;;;6157891;23;20432;-76
2023/03/21 15:45:43;;;;;;;5.13;3.10;;;;;;;;;;6158905;23;20497;-77
2023/03/21 15:48:21;;;;;;;3.73;3.30;;;;;;;;;;6156706;23;20416;-75
2023/03/21 15:50:54;;;;;;;10.00;3.70;;;;;;;;;;6156314;23;20458;-77
2023/03/21 15:53:30;;;;;;;3.73;3.43;;;;;;;;;;6156457;23;20459;-76
2023/03/21 15:56:14;;;;;;;4.70;3.73;;;;;;;;;;6157611;23;20499;-75
2023/03/21 15:58:43;;;;;;;3.60;3.30;;;;;;;;;;6158919;23;20488;-77
2023/03/21 16:01:35;;;;;;;4.20;3.80;;;;;;;;;;6157983;23;20412;-77
2023/03/21 16:04:13;;;;;;;5.00;3.60;;;;;;;;;;6158920;23;20428;-77
2023/03/21 16:06:57;;;;;;;4.23;3.03;;;;;;;;;;6158566;23;20414;-77
2023/03/21 16:12:47;;;;;;;4.20;3.33;;;;;;;;;;6155120;23;20840;-76
2023/03/21 16:24:06;;;;;;;7.40;3.30;;;;;;;;;;6153582;23;20483;-78
2023/03/21 16:32:31;;;;;;;;;;;;;;;;;;;;;
2023/03/21 16:38:29;;;;;;;5.23;3.37;;;;;;;;;;6067884;23;21039;-77
2023/03/21 16:41:07;;;;;;;6.37;4.10;;;;;;;;;;6069043;23;20981;-76
2023/03/21 16:43:53;;;;;;;4.30;3.97;;;;;;;;;;6068317;23;20490;-78
2023/03/21 16:46:32;;;;;;;4.47;4.10;;;;;;;;;;6068305;23;20477;-77
2023/03/21 16:49:15;;;;;;;5.10;3.93;;;;;;;;;;6067018;23;20411;-77
2023/03/21 16:54:47;;;;;;;4.00;3.60;;;;;;;;;;6065345;23;20502;-78
2023/03/21 16:57:22;;;;;;;4.43;3.37;;;;;;;;;;6067076;23;20399;-77
2023/03/21 16:59:50;;;;;;;6.57;3.60;;;;;;;;;;6066951;23;20418;-76
2023/03/21 17:02:24;;;;;;;4.23;3.80;;;;;;;;;;6067753;23;20411;-77
2023/03/21 17:05:05;;;;;;;3.60;3.40;;;;;;;;;;6068226;23;20442;-78
2023/03/21 17:07:42;;;;;;;3.93;3.33;;;;;;;;;;6067379;23;20826;-77
2023/03/21 17:10:21;;;;;;;6.53;3.77;;;;;;;;;;6067342;23;20422;-77
2023/03/21 17:12:56;;;;;;;6.40;3.67;;;;;;;;;;6068513;23;20466;-77
2023/03/21 17:15:28;;;;;;;5.43;3.63;;;;;;;;;;6070196;23;20458;-75
2023/03/21 17:18:11;;;;;;;3.30;3.00;;;;;;;;;;6070444;23;20429;-76
2023/03/21 17:20:40;;;;;;;8.70;4.67;;;;;;;;;;6071938;23;20422;-76
2023/03/21 17:23:26;;;;;;;4.67;3.63;;;;;;;;;;6069665;23;20437;-76
2023/03/21 17:26:03;;;;;;;6.93;3.60;;;;;;;;;;6061169;23;20441;-76
2023/03/21 17:28:41;;;;;;;4.20;3.30;;;;;;;;;;6071650;23;20469;-77
2023/03/21 17:31:18;;;;;;;4.40;3.20;;;;;;;;;;6071074;23;20391;-77
2023/03/21 17:33:47;;;;;;;3.60;3.10;;;;;;;;;;6071511;23;20935;-77
2023/03/21 17:36:22;;;;;;;9.87;4.20;;;;;;;;;;6072401;23;20506;-76
2023/03/21 17:38:56;;;;;;;4.90;3.73;;;;;;;;;;6071434;23;20437;-76
2023/03/21 17:41:34;;;;;;;3.70;3.30;;;;;;;;;;6069424;23;20478;-77
2023/03/21 17:44:03;;;;;;;5.23;3.80;;;;;;;;;;6070365;23;20512;-76
2023/03/21 17:46:45;;;;;;;4.80;3.50;;;;;;;;;;6073739;23;20430;-77
2023/03/21 17:49:30;;;;;;;4.87;3.93;;;;;;;;;;6071915;23;20461;-77
2023/03/21 17:52:10;;;;;;;4.07;3.03;;;;;;;;;;6071115;23;20785;-78
2023/03/21 17:57:39;;;;;;;3.83;3.43;;;;;;;;;;6068755;23;20497;-77
2023/03/21 18:00:14;;;;;;;7.37;4.47;;;;;;;;;;6075270;23;20420;-77
2023/03/21 18:02:44;;;;;;;5.20;4.23;;;;;;;;;;6078266;23;20422;-77
2023/03/21 18:05:32;;;;;;;;;;;;;;;;;;;;;
2023/03/21 18:08:06;;;;;;;55.87;46.73;;;;;;;;;;6077739;23;20410;-76
2023/03/21 18:10:37;;;;;;;164.80;131.37;;;;;;;;;;6076981;23;20403;-78
2023/03/21 18:13:24;;;;;;;79.43;64.83;;;;;;;;;;6075276;23;20460;-76
2023/03/21 18:16:01;;;;;;;12.83;11.53;;;;;;;;;;6077364;23;20514;-77
2023/03/21 18:18:46;;;;;;;5.77;4.13;;;;;;;;;;6076370;23;20422;-75
2023/03/21 18:27:33;;;;;;;4.50;4.10;;;;;;;;;;6051673;23;20394;-77
2023/03/21 18:32:54;;;;;;;6.87;4.37;;;;;;;;;;6025038;23;20444;-76
2023/03/21 18:35:52;;;;;;;6.43;4.13;;;;;;;;;;6081502;23;20438;-76
2023/03/21 18:38:40;;;;;;;4.37;3.90;;;;;;;;;;6068122;23;20444;-76
2023/03/21 18:41:12;;;;;;;6.33;5.00;;;;;;;;;;6078860;23;20415;-77
2023/03/21 18:43:41;;;;;;;4.60;4.20;;;;;;;;;;6082872;23;20435;-75
2023/03/21 18:46:10;;;;;;;8.23;5.03;;;;;;;;;;6082391;23;20452;-77
2023/03/21 18:48:50;;;;;;;6.33;5.40;;;;;;;;;;6075311;23;20414;-76
2023/03/21 18:51:18;;;;;;;8.40;6.00;;;;;;;;;;6083428;23;20415;-77
2023/03/21 18:54:12;;;;;;;5.63;5.20;;;;;;;;;;6082697;23;20442;-76
2023/03/21 18:57:00;;;;;;;11.07;5.27;;;;;;;;;;6083474;23;20440;-78
2023/03/21 18:59:44;;;;;;;5.77;5.27;;;;;;;;;;6082549;23;20482;-77
2023/03/21 19:14:29;;;;;;;7.50;4.87;;;;;;;;;;6079184;23;21012;-77
2023/03/21 19:17:13;;;;;;;4.50;4.10;;;;;;;;;;6081500;23;20419;-76
2023/03/21 19:19:52;;;;;;;5.90;5.20;;;;;;;;;;6081638;23;20416;-75
2023/03/21 19:22:35;;;;;;;7.47;5.73;;;;;;;;;;6081746;23;20402;-78
2023/03/21 19:27:58;;;;;;;6.63;4.93;;;;;;;;;;6083845;23;20395;-76
2023/03/21 19:30:47;;;;;;;15.57;6.50;;;;;;;;;;6088337;23;20410;-75
2023/03/21 19:33:24;;;;;;;7.73;5.87;;;;;;;;;;6081806;23;20490;-76
2023/03/21 19:44:52;;;;;;;6.17;5.57;;;;;;;;;;6058573;23;20447;-77
2023/03/21 19:47:21;;;;;;;7.03;5.43;;;;;;;;;;6078633;23;20916;-77
2023/03/21 19:49:54;;;;;;;10.37;5.60;;;;;;;;;;6073440;23;20414;-77
2023/03/21 19:52:36;;;;;;;7.40;5.27;;;;;;;;;;6082821;23;20439;-76
2023/03/21 19:55:24;;;;;;;8.97;5.60;;;;;;;;;;6086348;23;20427;-76
2023/03/21 20:07:31;;;;;;;9.57;6.30;;;;;;;;;;6017492;23;20412;-77
2023/03/21 20:10:29;;;;;;;;;;;;;;;;;;;;;
2023/03/21 20:13:37;;;;;;;;;;;;;;;;;;;;;
2023/03/21 20:16:49;;;;;;;7.63;6.47;;;;;;;;;;5990875;23;20420;-78
2023/03/21 20:19:59;;;;;;;;;;;;;;;;;;;;;
2023/03/21 20:25:32;;;;;;;8.70;6.73;;;;;;;;;;6012481;23;20449;-78
2023/03/21 20:30:49;;;;;;;11.00;6.60;;;;;;;;;;6012350;23;20528;-77
2023/03/21 20:33:24;;;;;;;8.87;6.63;;;;;;;;;;6077041;23;20450;-77
2023/03/21 20:36:07;;;;;;;6.57;5.83;;;;;;;;;;6078961;23;20485;-78
2023/03/21 20:38:48;;;;;;;7.60;5.33;;;;;;;;;;6079829;23;20446;-76
2023/03/21 20:41:18;;;;;;;6.30;5.70;;;;;;;;;;6075686;23;20395;-79
2023/03/21 20:43:59;;;;;;;6.80;6.20;;;;;;;;;;6075144;23;20411;-77
2023/03/21 20:46:32;;;;;;;9.90;6.53;;;;;;;;;;6074634;23;20425;-77